createdAt,value
2018-01-12T00:00:47.423Z,70.00
2018-01-12T00:01:58.712Z,68.32
2018-01-12T00:03:04.882Z,66.40
2018-01-12T00:04:11.086Z,62.65
2018-01-12T00:05:17.327Z,59.15
2018-01-12T00:06:30.218Z,66.62
2018-01-12T00:07:36.435Z,63.85
2018-01-12T00:08:42.350Z,60.95
2018-01-12T00:09:51.386Z,62.08
2018-01-12T00:10:57.428Z,65.05
2018-01-12T00:12:03.631Z,59.58
2018-01-12T00:13:10.542Z,63.38
2018-01-12T00:14:16.753Z,54.40
2018-01-12T00:15:25.915Z,55.55
2018-01-12T00:16:32.086Z,54.50
2018-01-12T00:17:38.333Z,65.00
2018-01-12T00:18:44.530Z,59.30
2018-01-12T00:19:51.167Z,55.50
2018-01-12T00:20:57.349Z,60.25
2018-01-12T00:22:03.545Z,59.15
2018-01-12T00:23:09.457Z,64.43
2018-01-12T00:24:15.626Z,58.92
2018-01-12T00:25:21.805Z,64.05
2018-01-12T00:26:28.049Z,61.13
2018-01-12T00:27:34.307Z,57.15
2018-01-12T00:28:40.512Z,57.78
2018-01-12T00:29:46.731Z,59.50
2018-01-12T00:30:52.896Z,59.30
2018-01-12T00:31:59.067Z,60.58
2018-01-12T00:33:04.947Z,50.05
2018-01-12T00:34:11.154Z,58.42
2018-01-12T00:35:22.279Z,59.30
2018-01-12T00:36:28.457Z,59.28
2018-01-12T00:37:34.657Z,53.20
2018-01-12T00:38:40.846Z,55.85
2018-01-12T00:39:46.834Z,55.53
2018-01-12T00:40:52.904Z,53.42
2018-01-12T00:42:00.037Z,57.72
2018-01-12T00:43:06.086Z,59.10
2018-01-12T00:44:12.143Z,51.15
2018-01-12T00:45:18.155Z,54.80
2018-01-12T00:46:24.209Z,58.92
2018-01-12T00:47:30.201Z,52.30
2018-01-12T00:48:36.243Z,58.75
2018-01-12T00:49:42.287Z,54.72
2018-01-12T00:50:48.280Z,50.55
2018-01-12T00:51:54.278Z,55.00
2018-01-12T00:53:00.243Z,50.50
2018-01-12T00:54:06.204Z,58.90
2018-01-12T00:55:12.227Z,53.38
2018-01-12T00:56:18.267Z,51.90
2018-01-12T00:57:24.293Z,48.95
2018-01-12T00:58:31.368Z,48.85
2018-01-12T00:59:37.329Z,48.47
2018-01-12T01:00:43.511Z,54.60
2018-01-12T01:01:49.715Z,51.55
2018-01-12T01:02:55.888Z,51.13
2018-01-12T01:04:02.064Z,53.17
2018-01-12T01:05:07.933Z,54.72
2018-01-12T01:06:14.102Z,54.65
2018-01-12T01:07:20.330Z,55.12
2018-01-12T01:08:26.551Z,65.18
2018-01-12T01:09:32.898Z,57.15
2018-01-12T01:10:39.109Z,56.95
2018-01-12T01:11:45.919Z,51.53
2018-01-12T01:12:52.103Z,58.58
2018-01-12T01:13:58.266Z,54.50
2018-01-12T01:15:04.124Z,54.08
2018-01-12T01:16:10.302Z,58.28
2018-01-12T01:17:16.499Z,52.45
2018-01-12T01:18:22.727Z,60.90
2018-01-12T01:19:28.901Z,58.13
2018-01-12T01:20:35.144Z,55.00
2018-01-12T01:21:41.375Z,58.33
2018-01-12T01:22:47.542Z,62.35
2018-01-12T01:23:53.722Z,67.10
2018-01-12T01:24:59.900Z,66.47
2018-01-12T01:26:06.110Z,64.82
2018-01-12T01:27:12.294Z,65.62
2018-01-12T01:28:18.504Z,65.05
2018-01-12T01:29:24.678Z,65.68
2018-01-12T01:30:30.950Z,63.67
2018-01-12T01:31:37.132Z,61.83
2018-01-12T01:32:43.355Z,57.90
2018-01-12T01:33:49.250Z,55.83
2018-01-12T01:34:55.494Z,64.95
2018-01-12T01:36:01.669Z,54.05
2018-01-12T01:37:07.591Z,55.92
2018-01-12T01:38:13.761Z,58.63
2018-01-12T01:39:19.931Z,60.60
2018-01-12T01:40:26.113Z,69.05
2018-01-12T01:41:32.294Z,61.95
2018-01-12T01:42:38.746Z,61.37
2018-01-12T01:43:44.929Z,64.53
2018-01-12T01:44:51.091Z,56.15
2018-01-12T01:45:57.257Z,61.20
2018-01-12T01:47:03.517Z,60.78
2018-01-12T01:48:09.793Z,59.10
2018-01-12T01:49:15.970Z,60.00
2018-01-12T01:50:22.179Z,58.95
2018-01-12T01:51:28.840Z,64.15
2018-01-12T01:52:35.037Z,60.33
2018-01-12T01:53:41.183Z,65.80
2018-01-12T01:54:47.337Z,62.65
2018-01-12T01:55:53.550Z,68.60
2018-01-12T01:56:59.712Z,58.72
2018-01-12T01:58:05.886Z,53.92
2018-01-12T01:59:12.068Z,61.83
2018-01-12T02:00:18.281Z,56.00
2018-01-12T02:01:24.201Z,62.38
2018-01-12T02:02:30.181Z,64.50
2018-01-12T02:03:36.326Z,58.55
2018-01-12T02:04:42.543Z,59.88
2018-01-12T02:05:48.752Z,64.15
2018-01-12T02:06:54.936Z,61.63
2018-01-12T02:08:01.114Z,74.75
2018-01-12T02:09:07.279Z,70.15
2018-01-12T02:10:13.492Z,65.87
2018-01-12T02:11:19.430Z,73.65
2018-01-12T02:12:25.596Z,76.47
2018-01-12T02:13:31.759Z,70.07
2018-01-12T02:14:38.179Z,85.18
2018-01-12T02:15:44.568Z,79.68
2018-01-12T02:16:50.971Z,74.28
2018-01-12T02:17:57.194Z,74.93
2018-01-12T02:19:03.474Z,67.45
2018-01-12T02:20:09.031Z,62.70
2018-01-12T02:21:15.017Z,64.20
2018-01-12T02:22:21.263Z,66.18
2018-01-12T02:23:27.577Z,71.50
2018-01-12T02:24:33.525Z,65.50
2018-01-12T02:25:39.405Z,73.87
2018-01-12T02:26:45.696Z,72.70
2018-01-12T02:27:51.903Z,71.70
2018-01-12T02:28:58.123Z,70.00
2018-01-12T02:30:03.931Z,81.72
2018-01-12T02:31:10.196Z,74.78
2018-01-12T02:32:16.384Z,73.15
2018-01-12T02:33:22.540Z,74.95
2018-01-12T02:34:28.724Z,65.25
2018-01-12T02:35:34.923Z,66.72
2018-01-12T02:36:41.078Z,66.53
2018-01-12T02:37:47.289Z,69.65
2018-01-12T02:38:53.486Z,69.57
2018-01-12T02:39:59.718Z,75.78
2018-01-12T02:41:05.915Z,56.83
2018-01-12T02:42:12.095Z,63.85
2018-01-12T02:43:19.240Z,64.70
2018-01-12T02:44:25.409Z,63.47
2018-01-12T02:45:31.592Z,62.10
2018-01-12T02:46:37.890Z,61.70
2018-01-12T02:47:44.070Z,65.32
2018-01-12T02:48:50.325Z,55.67
2018-01-12T02:49:56.536Z,66.40
2018-01-12T02:51:02.740Z,55.38
2018-01-12T02:52:08.978Z,66.25
2018-01-12T02:53:15.165Z,66.18
2018-01-12T02:54:21.464Z,72.72
2018-01-12T02:55:27.671Z,65.07
2018-01-12T02:56:33.904Z,63.45
2018-01-12T02:57:40.120Z,62.92
2018-01-12T02:58:46.296Z,66.30
2018-01-12T02:59:52.451Z,65.87
2018-01-12T03:01:02.676Z,103.50
2018-01-12T03:02:08.897Z,66.45
2018-01-12T03:03:19.674Z,76.43
2018-01-12T03:04:29.345Z,64.50
2018-01-12T03:05:35.563Z,72.37
2018-01-12T03:06:41.786Z,67.25
2018-01-12T03:07:47.800Z,68.97
2018-01-12T03:08:53.955Z,72.35
2018-01-12T03:10:00.111Z,73.65
2018-01-12T03:11:06.338Z,66.97
2018-01-12T03:12:12.584Z,64.65
2018-01-12T03:13:18.794Z,64.43
2018-01-12T03:14:24.971Z,61.88
2018-01-12T03:15:32.154Z,67.85
2018-01-12T03:16:38.368Z,59.75
2018-01-12T03:17:44.576Z,68.82
2018-01-12T03:18:50.805Z,59.67
2018-01-12T03:19:56.978Z,73.30
2018-01-12T03:21:09.437Z,50.65
2018-01-12T03:22:15.634Z,61.92
2018-01-12T03:23:21.790Z,60.33
2018-01-12T03:24:27.967Z,60.85
2018-01-12T03:25:34.172Z,64.60
2018-01-12T03:26:40.428Z,80.53
2018-01-12T03:27:46.598Z,66.75
2018-01-12T03:28:52.636Z,63.87
2018-01-12T03:29:58.826Z,58.72
2018-01-12T03:31:05.201Z,61.03
2018-01-12T03:32:11.386Z,71.10
2018-01-12T03:33:17.546Z,65.62
2018-01-12T03:34:23.705Z,63.25
2018-01-12T03:35:29.861Z,62.65
2018-01-12T03:36:36.075Z,62.40
2018-01-12T03:37:42.246Z,66.75
2018-01-12T03:38:48.399Z,77.62
2018-01-12T03:39:54.573Z,62.85
2018-01-12T03:41:00.794Z,70.05
2018-01-12T03:42:06.951Z,59.97
2018-01-12T03:43:13.099Z,56.78
2018-01-12T03:44:19.282Z,80.40
2018-01-12T03:45:25.541Z,61.53
2018-01-12T03:46:31.706Z,67.00
2018-01-12T03:47:37.859Z,64.15
2018-01-12T03:48:44.050Z,66.15
2018-01-12T03:49:54.201Z,73.05
2018-01-12T03:51:00.384Z,67.53
2018-01-12T03:52:06.600Z,53.25
2018-01-12T03:53:15.230Z,54.47
2018-01-12T03:54:21.403Z,51.33
2018-01-12T03:55:27.561Z,58.97
2018-01-12T03:56:33.791Z,58.20
2018-01-12T03:57:39.657Z,57.53
2018-01-12T03:58:45.858Z,47.22
2018-01-12T03:59:52.044Z,63.42
2018-01-12T04:00:58.197Z,56.45
2018-01-12T04:02:04.404Z,55.88
2018-01-12T04:03:10.627Z,60.35
2018-01-12T04:04:16.905Z,57.58
2018-01-12T04:05:23.114Z,52.40
2018-01-12T04:06:29.354Z,51.72
2018-01-12T04:07:43.653Z,54.53
2018-01-12T04:08:49.817Z,65.93
2018-01-12T04:09:56.193Z,58.55
2018-01-12T04:11:02.368Z,55.33
2018-01-12T04:12:08.616Z,54.53
2018-01-12T04:13:14.616Z,62.03
2018-01-12T04:14:20.786Z,46.97
2018-01-12T04:15:26.955Z,49.75
2018-01-12T04:16:33.198Z,53.20
2018-01-12T04:17:39.374Z,62.53
2018-01-12T04:18:45.601Z,69.15
2018-01-12T04:19:51.939Z,56.63
2018-01-12T04:20:58.230Z,48.13
2018-01-12T04:22:04.468Z,48.47
2018-01-12T04:23:10.730Z,59.88
2018-01-12T04:24:16.917Z,51.63
2018-01-12T04:25:23.315Z,50.15
2018-01-12T04:26:29.545Z,57.17
2018-01-12T04:27:35.776Z,64.45
2018-01-12T04:28:42.031Z,62.45
2018-01-12T04:29:48.172Z,62.25
2018-01-12T04:30:54.337Z,45.42
2018-01-12T04:32:00.519Z,43.67
2018-01-12T04:33:06.745Z,45.58
2018-01-12T04:34:13.065Z,52.40
2018-01-12T04:35:21.472Z,52.53
2018-01-12T04:36:27.667Z,49.25
2018-01-12T04:37:33.886Z,50.42
2018-01-12T04:38:40.042Z,45.05
2018-01-12T04:39:46.231Z,47.22
2018-01-12T04:40:52.446Z,44.25
2018-01-12T04:41:58.336Z,58.83
2018-01-12T04:43:04.519Z,49.53
2018-01-12T04:44:10.674Z,51.17
2018-01-12T04:45:17.411Z,43.78
2018-01-12T04:46:25.977Z,57.88
2018-01-12T04:47:33.277Z,55.70
2018-01-12T04:48:40.768Z,45.72
2018-01-12T04:49:49.562Z,42.62
2018-01-12T04:50:58.211Z,48.55
2018-01-12T04:52:06.376Z,44.75
2018-01-12T04:53:13.887Z,40.40
2018-01-12T04:54:24.137Z,48.63
2018-01-12T04:55:31.705Z,44.35
2018-01-12T04:56:38.101Z,45.83
2018-01-12T04:57:44.439Z,53.53
2018-01-12T04:58:50.670Z,45.70
2018-01-12T04:59:57.011Z,44.13
2018-01-12T05:01:03.252Z,52.35
2018-01-12T05:02:09.484Z,45.50
2018-01-12T05:03:15.660Z,46.25
2018-01-12T05:04:21.948Z,46.92
2018-01-12T05:05:28.324Z,43.35
2018-01-12T05:06:34.576Z,49.50
2018-01-12T05:07:40.811Z,47.78
2018-01-12T05:08:46.651Z,47.78
2018-01-12T05:09:52.816Z,49.20
2018-01-12T05:10:58.409Z,49.53
2018-01-12T05:12:04.612Z,45.28
2018-01-12T05:13:11.051Z,50.50
2018-01-12T05:14:21.340Z,46.05
2018-01-12T05:15:27.712Z,51.30
2018-01-12T05:16:33.903Z,42.85
2018-01-12T05:17:40.205Z,54.03
2018-01-12T05:18:46.545Z,46.75
2018-01-12T05:19:52.806Z,42.67
2018-01-12T05:21:00.636Z,48.35
2018-01-12T05:22:06.896Z,49.15
2018-01-12T05:23:13.077Z,46.35
2018-01-12T05:24:19.259Z,42.88
2018-01-12T05:25:25.483Z,47.58
2018-01-12T05:26:31.682Z,44.20
2018-01-12T05:27:38.062Z,44.45
2018-01-12T05:28:44.663Z,47.70
2018-01-12T05:29:51.101Z,51.13
2018-01-12T05:30:57.296Z,49.70
2018-01-12T05:32:03.527Z,48.67
2018-01-12T05:33:09.680Z,46.37
2018-01-12T05:34:15.875Z,45.58
2018-01-12T05:35:22.079Z,46.53
2018-01-12T05:36:28.290Z,49.25
2018-01-12T05:37:34.497Z,48.05
2018-01-12T05:38:40.480Z,48.25
2018-01-12T05:39:46.706Z,49.35
2018-01-12T05:40:52.579Z,45.33
2018-01-12T05:41:58.824Z,48.17
2018-01-12T05:43:05.004Z,50.80
2018-01-12T05:44:11.202Z,49.42
2018-01-12T05:45:17.163Z,47.17
2018-01-12T05:46:23.371Z,51.85
2018-01-12T05:47:29.525Z,44.72
2018-01-12T05:48:35.745Z,44.50
2018-01-12T05:49:41.955Z,50.20
2018-01-12T05:50:48.171Z,46.25
2018-01-12T05:51:54.365Z,51.63
2018-01-12T05:53:00.524Z,45.53
2018-01-12T05:54:06.675Z,44.00
2018-01-12T05:55:12.871Z,44.75
2018-01-12T05:56:19.107Z,46.15
2018-01-12T05:57:25.319Z,45.85
2018-01-12T05:58:31.630Z,43.25
2018-01-12T05:59:37.809Z,49.97
2018-01-12T06:00:55.068Z,45.10
2018-01-12T06:02:12.132Z,44.78
2018-01-12T06:03:29.063Z,48.80
2018-01-12T06:04:46.257Z,49.33
2018-01-12T06:06:18.056Z,42.62
2018-01-12T06:07:24.062Z,48.13
2018-01-12T06:08:30.264Z,49.00
2018-01-12T06:09:36.471Z,45.63
2018-01-12T06:10:42.704Z,53.72
2018-01-12T06:11:48.883Z,52.08
2018-01-12T06:12:55.083Z,47.78
2018-01-12T06:14:01.307Z,50.00
2018-01-12T06:15:07.489Z,43.58
2018-01-12T06:16:13.704Z,51.55
2018-01-12T06:17:23.786Z,45.42
2018-01-12T06:18:29.941Z,47.90
2018-01-12T06:19:36.178Z,53.47
2018-01-12T06:20:42.380Z,39.28
2018-01-12T06:21:48.539Z,40.00
2018-01-12T06:22:54.803Z,50.97
2018-01-12T06:24:00.970Z,44.78
2018-01-12T06:25:07.152Z,52.53
2018-01-12T06:26:13.429Z,44.42
2018-01-12T06:27:19.696Z,46.67
2018-01-12T06:28:25.883Z,47.35
2018-01-12T06:29:32.042Z,53.47
2018-01-12T06:30:38.223Z,60.78
2018-01-12T06:31:44.459Z,50.00
2018-01-12T06:32:50.645Z,56.65
2018-01-12T06:33:57.047Z,52.55
2018-01-12T06:35:03.224Z,51.72
2018-01-12T06:36:09.377Z,54.83
2018-01-12T06:37:15.618Z,49.13
2018-01-12T06:38:21.790Z,52.72
2018-01-12T06:39:28.017Z,54.25
2018-01-12T06:40:34.211Z,51.95
2018-01-12T06:41:40.377Z,55.15
2018-01-12T06:42:46.604Z,57.42
2018-01-12T06:43:52.790Z,61.85
2018-01-12T06:44:58.995Z,64.45
2018-01-12T06:46:05.159Z,55.67
2018-01-12T06:47:16.691Z,57.65
2018-01-12T06:48:22.923Z,61.58
2018-01-12T06:49:29.130Z,53.03
2018-01-12T06:50:35.409Z,63.05
2018-01-12T06:51:41.604Z,67.00
2018-01-12T06:52:47.830Z,64.18
2018-01-12T06:53:54.062Z,60.40
2018-01-12T06:55:00.280Z,52.85
2018-01-12T06:56:06.488Z,53.10
2018-01-12T06:57:12.685Z,54.75
2018-01-12T06:58:18.907Z,50.45
2018-01-12T06:59:25.142Z,54.45
2018-01-12T07:00:31.505Z,49.88
2018-01-12T07:01:37.711Z,47.05
2018-01-12T07:02:43.978Z,50.28
2018-01-12T07:03:50.240Z,51.75
2018-01-12T07:04:56.446Z,52.47
2018-01-12T07:06:02.624Z,54.70
2018-01-12T07:07:08.783Z,62.35
2018-01-12T07:08:15.089Z,50.08
2018-01-12T07:09:21.304Z,52.60
2018-01-12T07:10:27.467Z,56.00
2018-01-12T07:11:33.442Z,68.93
2018-01-12T07:12:39.594Z,63.17
2018-01-12T07:13:45.862Z,51.05
2018-01-12T07:14:51.839Z,58.65
2018-01-12T07:15:57.991Z,56.50
2018-01-12T07:17:04.154Z,66.65
2018-01-12T07:18:10.316Z,64.20
2018-01-12T07:19:16.548Z,65.35
2018-01-12T07:20:33.579Z,67.40
2018-01-12T07:21:50.683Z,68.57
2018-01-12T07:23:07.773Z,58.45
2018-01-12T07:24:13.728Z,57.35
2018-01-12T07:25:19.978Z,55.38
2018-01-12T07:26:25.817Z,51.88
2018-01-12T07:27:31.671Z,61.03
2018-01-12T07:28:37.864Z,59.40
2018-01-12T07:29:44.151Z,69.75
2018-01-12T07:30:50.447Z,73.30
2018-01-12T07:31:56.660Z,62.38
2018-01-12T07:33:02.864Z,69.15
2018-01-12T07:34:09.184Z,61.97
2018-01-12T07:35:15.402Z,62.25
2018-01-12T07:36:21.324Z,59.47
2018-01-12T07:37:27.503Z,62.83
2018-01-12T07:38:33.687Z,51.72
2018-01-12T07:39:39.940Z,55.60
2018-01-12T07:40:46.146Z,52.17
2018-01-12T07:41:52.340Z,59.72
2018-01-12T07:42:58.559Z,55.38
2018-01-12T07:44:04.468Z,59.10
2018-01-12T07:45:10.688Z,55.85
2018-01-12T07:46:16.877Z,56.25
2018-01-12T07:47:23.108Z,47.97
2018-01-12T07:48:29.301Z,61.65
2018-01-12T07:49:35.545Z,50.90
2018-01-12T07:50:41.778Z,48.90
2018-01-12T07:51:50.424Z,54.90
2018-01-12T07:53:02.096Z,50.75
2018-01-12T07:54:07.915Z,61.65
2018-01-12T07:55:14.139Z,53.78
2018-01-12T07:56:20.463Z,49.55
2018-01-12T07:57:26.762Z,52.55
2018-01-12T07:58:32.971Z,51.40
2018-01-12T07:59:39.204Z,52.15
2018-01-12T08:00:50.934Z,51.25
2018-01-12T08:02:02.728Z,50.97
2018-01-12T08:03:08.910Z,54.28
2018-01-12T08:04:15.218Z,48.85
2018-01-12T08:05:21.652Z,50.35
2018-01-12T08:06:28.715Z,56.05
2018-01-12T08:07:34.926Z,53.95
2018-01-12T08:08:41.140Z,51.65
2018-01-12T08:09:47.375Z,52.47
2018-01-12T08:10:53.544Z,51.28
2018-01-12T08:11:59.713Z,50.20
2018-01-12T08:13:05.888Z,55.83
2018-01-12T08:14:12.102Z,49.35
2018-01-12T08:15:18.329Z,51.78
2018-01-12T08:16:24.150Z,50.08
2018-01-12T08:17:30.081Z,44.72
2018-01-12T08:18:36.239Z,43.25
2018-01-12T08:19:42.160Z,50.53
2018-01-12T08:20:48.408Z,47.45
2018-01-12T08:21:54.582Z,55.97
2018-01-12T08:23:00.820Z,45.42
2018-01-12T08:24:07.052Z,49.65
2018-01-12T08:25:13.309Z,44.30
2018-01-12T08:26:19.563Z,51.25
2018-01-12T08:27:25.725Z,51.25
2018-01-12T08:28:31.988Z,53.65
2018-01-12T08:29:38.278Z,51.22
2018-01-12T08:30:44.471Z,50.25
2018-01-12T08:31:50.718Z,48.75
2018-01-12T08:32:56.878Z,59.95
2018-01-12T08:34:03.049Z,50.42
2018-01-12T08:35:09.244Z,52.97
2018-01-12T08:36:15.482Z,51.97
2018-01-12T08:37:21.654Z,54.22
2018-01-12T08:38:27.945Z,53.05
2018-01-12T08:39:34.204Z,70.05
2018-01-12T08:40:40.367Z,57.75
2018-01-12T08:41:46.580Z,55.33
2018-01-12T08:42:52.753Z,57.25
2018-01-12T08:43:58.917Z,72.20
2018-01-12T08:45:05.126Z,75.45
2018-01-12T08:46:11.307Z,55.53
2018-01-12T08:47:19.897Z,62.30
2018-01-12T08:48:26.087Z,51.58
2018-01-12T08:49:32.282Z,51.08
2018-01-12T08:50:38.525Z,60.28
2018-01-12T08:51:44.748Z,80.07
2018-01-12T08:52:50.982Z,75.15
2018-01-12T08:53:57.211Z,72.28
2018-01-12T08:55:03.422Z,59.70
2018-01-12T08:56:09.672Z,59.22
2018-01-12T08:57:15.930Z,67.55
2018-01-12T08:58:22.110Z,68.28
2018-01-12T08:59:28.186Z,64.43
2018-01-12T09:00:34.116Z,54.88
2018-01-12T09:01:40.003Z,65.32
2018-01-12T09:02:45.924Z,80.07
2018-01-12T09:03:52.095Z,81.70
2018-01-12T09:04:58.246Z,81.70
2018-01-12T09:06:04.405Z,69.95
2018-01-12T09:07:10.615Z,70.05
2018-01-12T09:08:17.415Z,72.78
2018-01-12T09:09:23.597Z,57.25
2018-01-12T09:10:29.847Z,74.45
2018-01-12T09:11:36.223Z,63.87
2018-01-12T09:12:42.372Z,71.15
2018-01-12T09:13:59.182Z,70.97
2018-01-12T09:15:16.214Z,69.15
2018-01-12T09:16:28.014Z,63.95
2018-01-12T09:17:45.033Z,70.97
2018-01-12T09:19:01.912Z,66.62
2018-01-12T09:20:17.684Z,67.53
2018-01-12T09:21:25.210Z,64.37
2018-01-12T09:22:33.264Z,78.57
2018-01-12T09:23:38.960Z,58.53
2018-01-12T09:24:46.268Z,69.03
2018-01-12T09:25:52.518Z,61.80
2018-01-12T09:26:58.754Z,50.85
2018-01-12T09:28:04.621Z,48.65
2018-01-12T09:29:10.835Z,54.88
2018-01-12T09:30:17.051Z,66.87
2018-01-12T09:31:34.288Z,56.60
2018-01-12T09:32:39.539Z,70.70
2018-01-12T09:33:48.333Z,55.03
2018-01-12T09:35:01.369Z,52.97
2018-01-12T09:36:07.526Z,49.95
2018-01-12T09:37:13.773Z,54.95
2018-01-12T09:38:20.906Z,56.08
2018-01-12T09:39:47.875Z,61.55
2018-01-12T09:40:53.759Z,52.42
2018-01-12T09:41:59.990Z,71.93
2018-01-12T09:43:06.195Z,66.47
2018-01-12T09:44:12.367Z,61.47
2018-01-12T09:45:18.570Z,57.92
2018-01-12T09:46:24.751Z,58.13
2018-01-12T09:47:40.626Z,61.78
2018-01-12T09:48:47.870Z,66.82
2018-01-12T09:49:53.314Z,62.75
2018-01-12T09:50:59.259Z,61.97
2018-01-12T09:52:09.302Z,66.90
2018-01-12T09:53:15.507Z,65.30
2018-01-12T09:54:21.705Z,56.42
2018-01-12T09:55:27.841Z,67.57
2018-01-12T09:56:33.770Z,62.62
2018-01-12T09:57:39.994Z,73.85
2018-01-12T09:58:45.777Z,73.32
2018-01-12T09:59:51.335Z,86.00
2018-01-12T10:00:57.129Z,66.03
2018-01-12T10:02:03.023Z,58.35
2018-01-12T10:03:09.230Z,66.30
2018-01-12T10:04:15.470Z,57.10
2018-01-12T10:05:21.448Z,61.20
2018-01-12T10:06:27.680Z,58.92
2018-01-12T10:07:44.984Z,72.55
2018-01-12T10:08:58.908Z,67.22
2018-01-12T10:10:08.798Z,67.87
2018-01-12T10:11:14.965Z,71.53
2018-01-12T10:12:21.278Z,59.53
2018-01-12T10:13:28.317Z,97.47
2018-01-12T10:14:35.584Z,88.90
2018-01-12T10:15:42.950Z,80.05
2018-01-12T10:16:49.750Z,66.07
2018-01-12T10:17:56.937Z,61.63
2018-01-12T10:19:15.285Z,70.97
2018-01-12T10:20:38.579Z,76.40
2018-01-12T10:21:44.771Z,56.70
2018-01-12T10:22:50.742Z,62.03
2018-01-12T10:23:56.692Z,75.22
2018-01-12T10:25:03.129Z,80.15
2018-01-12T10:26:09.355Z,69.70
2018-01-12T10:27:15.595Z,67.82
2018-01-12T10:28:21.771Z,57.97
2018-01-12T10:29:31.292Z,65.37
2018-01-12T10:30:56.791Z,73.60
2018-01-12T10:32:09.642Z,64.93
2018-01-12T10:33:19.727Z,76.20
2018-01-12T10:34:45.359Z,66.57
2018-01-12T10:35:56.536Z,88.60
2018-01-12T10:37:03.026Z,77.78
2018-01-12T10:38:10.671Z,82.55
2018-01-12T10:39:22.833Z,62.60
2018-01-12T10:40:48.852Z,82.68
2018-01-12T10:42:04.712Z,67.28
2018-01-12T10:43:11.624Z,59.72
2018-01-12T10:44:19.089Z,61.50
2018-01-12T10:45:26.121Z,66.68
2018-01-12T10:46:44.855Z,68.03
2018-01-12T10:47:54.121Z,57.20
2018-01-12T10:49:00.549Z,54.83
2018-01-12T10:50:09.911Z,64.55
2018-01-12T10:51:21.755Z,46.92
2018-01-12T10:52:40.528Z,56.63
2018-01-12T10:53:47.213Z,55.58
2018-01-12T10:54:54.350Z,50.35
2018-01-12T10:56:01.506Z,56.53
2018-01-12T10:57:10.661Z,65.55
2018-01-12T10:58:18.117Z,55.58
2018-01-12T10:59:24.719Z,62.05
2018-01-12T11:00:33.092Z,62.05
2018-01-12T11:01:40.080Z,63.70
2018-01-12T11:02:48.150Z,68.47
2018-01-12T11:03:54.874Z,68.60
2018-01-12T11:05:01.864Z,70.50
2018-01-12T11:06:08.955Z,58.08
2018-01-12T11:07:16.572Z,67.22
2018-01-12T11:08:23.985Z,71.30
2018-01-12T11:09:31.313Z,61.35
2018-01-12T11:10:39.016Z,62.30
2018-01-12T11:11:45.601Z,64.93
2018-01-12T11:12:52.123Z,63.28
2018-01-12T11:13:58.121Z,53.50
2018-01-12T11:15:04.001Z,56.37
2018-01-12T11:16:10.200Z,48.55
2018-01-12T11:17:16.396Z,57.33
2018-01-12T11:18:27.564Z,57.15
2018-01-12T11:19:33.725Z,61.92
2018-01-12T11:20:39.889Z,56.35
2018-01-12T11:21:46.134Z,58.30
2018-01-12T11:22:52.362Z,71.25
2018-01-12T11:23:58.548Z,60.83
2018-01-12T11:25:04.777Z,70.43
2018-01-12T11:26:10.941Z,68.40
2018-01-12T11:27:17.134Z,70.35
2018-01-12T11:28:23.347Z,68.95
2018-01-12T11:29:29.555Z,74.82
2018-01-12T11:30:35.800Z,73.37
2018-01-12T11:31:42.037Z,69.03
2018-01-12T11:32:48.236Z,71.78
2018-01-12T11:33:54.435Z,70.50
2018-01-12T11:35:00.620Z,72.47
2018-01-12T11:36:06.610Z,80.40
2018-01-12T11:37:12.771Z,73.00
2018-01-12T11:38:19.075Z,74.00
2018-01-12T11:39:25.273Z,85.70
2018-01-12T11:40:31.956Z,88.12
2018-01-12T11:41:39.911Z,80.70
2018-01-12T11:42:46.069Z,73.15
2018-01-12T11:43:52.303Z,83.95
2018-01-12T11:44:58.794Z,98.93
2018-01-12T11:46:06.402Z,82.72
2018-01-12T11:47:12.685Z,69.00
2018-01-12T11:48:18.907Z,83.57
2018-01-12T11:49:25.159Z,74.62
2018-01-12T11:50:31.300Z,87.55
2018-01-12T11:51:37.510Z,117.53
2018-01-12T11:52:44.518Z,75.90
2018-01-12T11:53:50.696Z,74.95
2018-01-12T11:54:56.998Z,61.05
2018-01-12T11:56:03.238Z,86.12
2018-01-12T11:57:14.753Z,70.85
2018-01-12T11:58:20.981Z,73.80
2018-01-12T11:59:28.559Z,76.32
2018-01-12T12:00:34.245Z,92.72
2018-01-12T12:01:40.499Z,112.32
2018-01-12T12:02:46.712Z,91.70
2018-01-12T12:03:52.911Z,93.25
2018-01-12T12:04:59.147Z,121.32
2018-01-12T12:06:05.334Z,100.03
2018-01-12T12:07:11.751Z,95.85
2018-01-12T12:08:17.938Z,98.22
2018-01-12T12:09:24.178Z,105.87
2018-01-12T12:10:30.357Z,102.95
2018-01-12T12:11:36.827Z,98.03
2018-01-12T12:12:43.396Z,102.10
2018-01-12T12:13:49.649Z,90.32
2018-01-12T12:14:55.894Z,115.37
2018-01-12T12:16:02.098Z,105.93
2018-01-12T12:17:08.293Z,98.20
2018-01-12T12:18:14.459Z,120.75
2018-01-12T12:19:20.697Z,101.18
2018-01-12T12:20:26.869Z,96.78
2018-01-12T12:21:33.081Z,99.13
2018-01-12T12:22:39.320Z,111.57
2018-01-12T12:23:45.515Z,104.90
2018-01-12T12:24:51.736Z,122.10
2018-01-12T12:25:57.882Z,95.78
2018-01-12T12:27:04.040Z,111.15
2018-01-12T12:28:10.273Z,76.57
2018-01-12T12:29:16.529Z,120.07
2018-01-12T12:30:22.697Z,121.45
2018-01-12T12:31:29.021Z,103.95
2018-01-12T12:32:35.225Z,93.85
2018-01-12T12:33:41.369Z,111.97
2018-01-12T12:34:47.540Z,107.55
2018-01-12T12:35:53.778Z,96.57
2018-01-12T12:36:59.940Z,84.82
2018-01-12T12:38:06.158Z,117.00
2018-01-12T12:39:12.343Z,96.28
2018-01-12T12:40:18.569Z,106.72
2018-01-12T12:41:24.781Z,86.12
2018-01-12T12:42:31.298Z,95.87
2018-01-12T12:43:37.485Z,117.85
2018-01-12T12:44:43.661Z,73.90
2018-01-12T12:45:49.827Z,101.65
2018-01-12T12:46:55.979Z,89.32
2018-01-12T12:48:02.223Z,75.12
2018-01-12T12:49:08.384Z,85.90
2018-01-12T12:50:14.560Z,87.75
2018-01-12T12:51:20.739Z,83.32
2018-01-12T12:52:27.040Z,91.63
2018-01-12T12:53:33.263Z,102.12
2018-01-12T12:54:39.576Z,114.45
2018-01-12T12:55:47.718Z,118.30
2018-01-12T12:56:54.498Z,88.60
2018-01-12T12:58:01.265Z,106.65
2018-01-12T12:59:08.019Z,100.50
2018-01-12T13:00:14.825Z,98.93
2018-01-12T13:01:21.648Z,128.40
2018-01-12T13:02:28.588Z,97.10
2018-01-12T13:03:35.174Z,123.28
2018-01-12T13:04:41.937Z,105.90
2018-01-12T13:05:48.830Z,136.60
2018-01-12T13:06:55.514Z,102.55
2018-01-12T13:08:02.226Z,119.22
2018-01-12T13:09:09.571Z,143.75
2018-01-12T13:10:16.824Z,110.15
2018-01-12T13:11:24.006Z,108.05
2018-01-12T13:12:30.215Z,139.68
2018-01-12T13:13:36.627Z,135.65
2018-01-12T13:14:42.857Z,163.68
2018-01-12T13:15:51.021Z,127.47
2018-01-12T13:17:05.418Z,140.32
2018-01-12T13:18:12.968Z,121.32
2018-01-12T13:19:21.133Z,117.97
2018-01-12T13:20:28.179Z,97.28
2018-01-12T13:21:34.964Z,86.63
2018-01-12T13:22:40.835Z,153.68
2018-01-12T13:23:47.033Z,155.02
2018-01-12T13:24:57.286Z,130.82
2018-01-12T13:26:03.572Z,98.03
2018-01-12T13:27:09.761Z,158.30
2018-01-12T13:28:15.606Z,125.95
2018-01-12T13:29:21.862Z,137.68
2018-01-12T13:30:28.138Z,124.75
2018-01-12T13:31:34.395Z,97.68
2018-01-12T13:32:40.630Z,120.80
2018-01-12T13:33:47.807Z,135.35
2018-01-12T13:34:54.020Z,102.38
2018-01-12T13:36:00.266Z,110.78
2018-01-12T13:37:06.209Z,144.45
2018-01-12T13:38:12.409Z,130.02
2018-01-12T13:39:18.646Z,154.05
2018-01-12T13:40:24.939Z,128.90
2018-01-12T13:41:31.150Z,140.00
2018-01-12T13:42:37.322Z,111.50
2018-01-12T13:43:43.489Z,130.12
2018-01-12T13:44:49.738Z,77.47
2018-01-12T13:45:55.976Z,96.68
2018-01-12T13:47:02.133Z,85.15
2018-01-12T13:48:08.317Z,87.95
2018-01-12T13:49:14.492Z,109.07
2018-01-12T13:50:20.654Z,92.70
2018-01-12T13:51:28.354Z,99.72
2018-01-12T13:52:34.583Z,101.62
2018-01-12T13:53:40.893Z,91.60
2018-01-12T13:54:47.242Z,94.75
2018-01-12T13:55:55.478Z,98.20
2018-01-12T13:57:01.711Z,75.80
2018-01-12T13:58:07.877Z,90.25
2018-01-12T13:59:15.627Z,89.65
2018-01-12T14:00:23.489Z,82.57
2018-01-12T14:01:30.694Z,73.03
2018-01-12T14:02:38.282Z,83.57
2018-01-12T14:03:45.261Z,72.60
2018-01-12T14:04:52.246Z,78.75
2018-01-12T14:05:58.219Z,70.85
2018-01-12T14:07:05.476Z,71.35
2018-01-12T14:08:12.359Z,71.43
2018-01-12T14:09:19.585Z,71.03
2018-01-12T14:10:26.987Z,68.25
2018-01-12T14:11:33.967Z,60.92
2018-01-12T14:12:40.847Z,72.03
2018-01-12T14:13:47.595Z,71.62
2018-01-12T14:14:54.822Z,60.90
2018-01-12T14:16:01.596Z,65.32
2018-01-12T14:17:08.353Z,57.85
2018-01-12T14:18:15.095Z,64.78
2018-01-12T14:19:22.425Z,60.38
2018-01-12T14:20:28.873Z,65.95